LHPR/QGY METAR and TAF weather

Enter ICAO airport designator
Station Type Date Time Source
LHPR METAR 2023/02/06 19:45 UTC NOAA

LHPR 061945Z AUTO 27002KT CAVOK M05/M08 Q1038


Station Type Date Time Source
LHPR Decoded METAR 2023/02/06 19:45 UTC NOAA

Station name not available
Feb 06, 2023 - 02:45 PM EST / 2023.02.06 1945 UTC
Wind: from the W (270 degrees) at 2 MPH (2 KT):0
Visibility: greater than 7 mile(s):0
Temperature: 23 F (-5 C)
Dew Point: 17 F (-8 C)
Relative Humidity: 79%
Pressure (altimeter): 30.65 in. Hg (1038 hPa)
ob: LHPR 061945Z AUTO 27002KT CAVOK M05/M08 Q1038
cycle: 20

Station Type Date Time Source
LHPR TAF UTC NOAA

Error!

Example: see airport list